DC52 weather

Sibley Memorial Hospital Heliport
Washington, District of Columbia, United States

Public forecast

Using degrees Fahrenheit for public forecast. Weather courtesy of forecast.io.

METAR (pilot weather report)

Closest report is Ronald Reagan Washington National Airport, 6.3 nm (11.7 km) SE. Retrieved 2019/05/22 13:52 UTC (17 minutes ago):

KDCA 221352Z 08008KT 10SM FEW090 BKN250 19/06 A3029 RMK AO2 SLP256 T01940056

TAF (pilot weather forecast)

Closest forecast is Ronald Reagan Washington National Airport, 6.3 nm (11.7 km) SE. Retrieved 2019/05/22 12:30 UTC (2 hours ago):

TAF KDCA 221129Z 2212/2318 05005KT P6SM FEW130 BKN200 FM221500 12006KT P6SM SCT050 BKN200 FM221900 15007KT P6SM SCT090 BKN200 FM230400 18008KT P6SM SCT080 FM231400 22010KT P6SM BKN080